^^
Your Local Weather - Clay, NY Station Historical Data
Daily Summary for February 16, 2018 Units:  Metric    English   Both
« Previous Day
Next Day »
Daily Weekly Monthly Yearly Custom
  High: Low: Average:
Temperature: 6.7 °C -4.6 °C 1.1 °C
Dew Point: 5.4 °C -9.4 °C -1.3 °C
Humidity: 94% 63% 84%
Wind Speed: 12.9km/h 0km/h 5.1km/h
Wind Gust: 29km/h - -
Wind- - WNW
Pressure: 1023.9 hPa 1001.6 hPa -
Precipitation: 3.05 mm    
Historical Graphs
 
 
Tabular Data for February 16, 2018
Time Temperature Dew Point Pressure Wind Wind Speed Wind Gust Humidity Rainfall Rate (Hourly) solar
00:04 6.7 °C 5.4 °C 1002.6 hPa NW 4.8 km/h 9.7 km/h 92% 0 mm 0 W/m2
00:10 6.5 °C 5.3 °C 1002.6 hPa NNW 4.8 km/h 4.8 km/h 92% 0 mm 0 W/m2
00:16 6.4 °C 5.2 °C 1002.6 hPa NW 4.8 km/h 4.8 km/h 92% 1.02 mm 0 W/m2
00:22 6.3 °C 5.1 °C 1002.6 hPa NW 3.2 km/h 9.7 km/h 92% 1.02 mm 0 W/m2
00:28 6.2 °C 5.1 °C 1002.6 hPa NNW 3.2 km/h 9.7 km/h 93% 1.02 mm 0 W/m2
00:34 6.1 °C 5.1 °C 1002.6 hPa NNW 1.6 km/h 3.2 km/h 93% 0 mm 0 W/m2
00:40 6.1 °C 4.8 °C 1002.9 hPa NNW 1.6 km/h 1.6 km/h 92% 0 mm 0 W/m2
00:46 5.9 °C 4.9 °C 1002.9 hPa NNW 1.6 km/h 1.6 km/h 93% 1.52 mm 0 W/m2
00:52 5.8 °C 4.8 °C 1002.6 hPa NNW 1.6 km/h 3.2 km/h 93% 1.52 mm 0 W/m2
00:58 5.8 °C 4.7 °C 1002.6 hPa NNW 1.6 km/h 3.2 km/h 93% 1.27 mm 0 W/m2
01:04 5.7 °C 4.6 °C 1002.6 hPa NNW 1.6 km/h 1.6 km/h 93% 3.05 mm 0 W/m2
01:10 5.6 °C 4.5 °C 1002.6 hPa Calm   1.6 km/h 93% 1.78 mm 0 W/m2
01:16 5.4 °C 4.3 °C 1002.6 hPa Calm   3.2 km/h 93% 3.3 mm 0 W/m2
01:22 5.3 °C 4.2 °C 1002.9 hPa Calm   1.6 km/h 93% 1.78 mm 0 W/m2
01:28 5.2 °C 4.1 °C 1003.3 hPa Calm   1.6 km/h 93% 1.78 mm 0 W/m2
01:34 5.1 °C 4.1 °C 1003.3 hPa Calm     93% 1.27 mm 0 W/m2
01:40 5.1 °C 4 °C 1002.9 hPa Calm     93% 2.54 mm 0 W/m2
01:46 5 °C 3.9 °C 1002.9 hPa Calm     93% 2.29 mm 0 W/m2
01:52 4.9 °C 3.9 °C 1003.3 hPa Calm     93% 2.29 mm 0 W/m2
01:58 4.9 °C 3.8 °C 1003.3 hPa Calm     93% 1.27 mm 0 W/m2
02:04 4.8 °C 3.7 °C 1002.9 hPa Calm     93% 0 mm 0 W/m2
02:10 4.7 °C 3.6 °C 1002.6 hPa Calm     93% 0 mm 0 W/m2
02:16 4.4 °C 3.4 °C 1002.6 hPa Calm     93% 0 mm 0 W/m2
02:22 4.3 °C 3.2 °C 1002.6 hPa Calm     93% 0 mm 0 W/m2
02:28 4.3 °C 3.2 °C 1002.6 hPa Calm     93% 0 mm 0 W/m2
02:34 4.2 °C 3.2 °C 1002.6 hPa Calm     93% 0 mm 0 W/m2
02:40 4.2 °C 3.1 °C 1002.6 hPa Calm     93% 0 mm 0 W/m2
02:46 4.1 °C 3 °C 1002.3 hPa Calm     93% 0 mm 0 W/m2
02:52 4 °C 2.9 °C 1002.3 hPa Calm     93% 0 mm 0 W/m2
02:58 3.9 °C 2.9 °C 1002.3 hPa Calm     93% 0 mm 0 W/m2
03:04 3.9 °C 2.8 °C 1002.3 hPa Calm     93% 0 mm 0 W/m2
03:10 3.8 °C 2.8 °C 1002.6 hPa Calm     93% 0 mm 0 W/m2
03:16 3.7 °C 2.7 °C 1002.3 hPa Calm     93% 0 mm 0 W/m2
03:22 3.7 °C 2.7 °C 1002.3 hPa Calm     93% 0 mm 0 W/m2
03:28 3.6 °C 2.6 °C 1002.3 hPa Calm     93% 0 mm 0 W/m2
03:34 3.6 °C 2.6 °C 1002.3 hPa Calm     93% 0 mm 0 W/m2
03:40 3.6 °C 2.6 °C 1001.9 hPa Calm     93% 0 mm 0 W/m2
03:46 3.6 °C 2.6 °C 1001.9 hPa Calm     93% 0 mm 0 W/m2
03:52 3.6 °C 2.6 °C 1001.9 hPa Calm     93% 0 mm 0 W/m2
03:58 3.5 °C 2.5 °C 1001.9 hPa Calm     93% 0 mm 0 W/m2
04:04 3.4 °C 2.4 °C 1001.6 hPa Calm     93% 0 mm 0 W/m2
04:12 3.4 °C 2.4 °C 1001.6 hPa Calm     93% 0 mm 0 W/m2
04:18 3.3 °C 2.3 °C 1001.6 hPa Calm     93% 0 mm 0 W/m2
04:24 3.4 °C 2.4 °C 1001.9 hPa Calm     93% 0 mm 0 W/m2
04:30 3.3 °C 2.3 °C 1001.6 hPa Calm     93% 0 mm 0 W/m2
04:36 3.3 °C 2.3 °C 1001.6 hPa Calm     93% 0 mm 0 W/m2
04:42 3.3 °C 2.3 °C 1001.6 hPa Calm     93% 0 mm 0 W/m2
04:48 3.3 °C 2.3 °C 1001.9 hPa Calm     93% 0 mm 0 W/m2
04:54 3.3 °C 2.3 °C 1001.9 hPa Calm     93% 0 mm 0 W/m2
05:00 3.2 °C 2.2 °C 1001.9 hPa Calm     93% 0 mm 0 W/m2
05:06 3.2 °C 2.2 °C 1002.3 hPa Calm     93% 0 mm 0 W/m2
05:12 3.2 °C 2.2 °C 1001.9 hPa Calm     93% 0 mm 0 W/m2
05:18 3.2 °C 2.2 °C 1002.3 hPa Calm     93% 0 mm 0 W/m2
05:24 3.1 °C 2.1 °C 1002.3 hPa Calm     93% 0 mm 0 W/m2
05:30 3.1 °C 2.1 °C 1002.3 hPa Calm     93% 0 mm 0 W/m2
05:36 3.2 °C 2.2 °C 1002.6 hPa Calm     93% 0 mm 0 W/m2
05:42 3.1 °C 2.1 °C 1002.6 hPa Calm     93% 0 mm 0 W/m2
05:48 3.1 °C 2.1 °C 1002.6 hPa Calm     93% 0 mm 0 W/m2
05:54 3.1 °C 2.1 °C 1002.6 hPa Calm     93% 0 mm 0 W/m2
06:00 3 °C 2 °C 1002.6 hPa Calm     93% 0 mm 0 W/m2
06:06 2.9 °C 1.9 °C 1002.6 hPa Calm     93% 0 mm 0 W/m2
06:12 2.9 °C 1.9 °C 1002.6 hPa Calm     93% 0 mm 0 W/m2
06:18 2.9 °C 1.9 °C 1002.6 hPa Calm     93% 0 mm 0 W/m2
06:24 2.9 °C 1.9 °C 1002.3 hPa Calm     93% 0 mm 0 W/m2
06:30 3 °C 2 °C 1002.6 hPa Calm     93% 0 mm 0 W/m2
06:36 2.9 °C 1.9 °C 1002.6 hPa Calm   1.6 km/h 93% 0 mm 0 W/m2
06:42 2.9 °C 1.9 °C 1002.6 hPa Calm     93% 0 mm 0 W/m2
06:48 2.9 °C 1.9 °C 1002.3 hPa Calm     93% 0 mm 0 W/m2
06:54 2.9 °C 1.9 °C 1002.3 hPa Calm     93% 0 mm 0 W/m2
07:00 2.9 °C 1.9 °C 1002.9 hPa Calm     93% 0 mm 0 W/m2
07:06 2.9 °C 1.9 °C 1002.6 hPa Calm     93% 0 mm 0 W/m2
07:12 2.8 °C 1.8 °C 1002.6 hPa Calm     93% 0 mm 0 W/m2
07:18 2.8 °C 1.9 °C 1002.9 hPa Calm   1.6 km/h 94% 0 mm 0 W/m2
07:24 2.9 °C 1.9 °C 1002.6 hPa Calm   1.6 km/h 93% 0 mm 0 W/m2
07:30 2.9 °C 1.9 °C 1002.9 hPa Calm     93% 0 mm 5 W/m2
07:36 2.9 °C 2.1 °C 1002.9 hPa Calm     94% 0 mm 5 W/m2
07:42 2.8 °C 1.9 °C 1003.3 hPa Calm     94% 0 mm 5 W/m2
07:48 2.9 °C 2 °C 1003.3 hPa NNW 1.6 km/h 3.2 km/h 94% 0 mm 9 W/m2
07:54 2.8 °C 1.9 °C 1002.9 hPa NNW 1.6 km/h 1.6 km/h 94% 0 mm 11 W/m2
08:00 2.8 °C 1.9 °C 1003.3 hPa Calm   1.6 km/h 94% 0 mm 12 W/m2
08:06 2.8 °C 1.9 °C 1003.3 hPa NNW 1.6 km/h 3.2 km/h 94% 0 mm 19 W/m2
08:12 2.8 °C 1.9 °C 1003.6 hPa Calm   1.6 km/h 94% 0 mm 26 W/m2
08:18 2.8 °C 1.9 °C 1003.6 hPa NNW 1.6 km/h 3.2 km/h 94% 0 mm 26 W/m2
08:24 2.8 °C 1.9 °C 1003.6 hPa NNW 1.6 km/h 3.2 km/h 94% 0 mm 32 W/m2
08:30 2.8 °C 1.9 °C 1003.6 hPa NNW 1.6 km/h 3.2 km/h 94% 0 mm 35 W/m2
08:36 2.8 °C 1.9 °C 1003.6 hPa NNW 3.2 km/h 3.2 km/h 94% 0 mm 33 W/m2
08:42 2.8 °C 1.9 °C 1003.6 hPa NNW 1.6 km/h 1.6 km/h 94% 0 mm 33 W/m2
08:48 2.8 °C 1.9 °C 1003.6 hPa NNW 1.6 km/h 4.8 km/h 94% 0 mm 32 W/m2
08:54 2.8 °C 1.9 °C 1003.6 hPa NNW 1.6 km/h 3.2 km/h 94% 0 mm 35 W/m2
09:00 2.8 °C 1.9 °C 1003.3 hPa NNW 1.6 km/h 1.6 km/h 94% 0 mm 35 W/m2
09:06 2.8 °C 1.9 °C 1003.6 hPa NNW 1.6 km/h 3.2 km/h 94% 0 mm 42 W/m2
09:12 2.8 °C 1.9 °C 1003.6 hPa NNW 1.6 km/h 1.6 km/h 94% 0 mm 33 W/m2
09:18 2.8 °C 1.9 °C 1003.9 hPa NNW 1.6 km/h 4.8 km/h 94% 0 mm 35 W/m2
09:24 2.8 °C 1.9 °C 1003.9 hPa NNW 3.2 km/h 4.8 km/h 94% 0 mm 35 W/m2
09:30 2.7 °C 1.8 °C 1003.9 hPa West 3.2 km/h 3.2 km/h 94% 0 mm 49 W/m2
09:36 2.7 °C 1.8 °C 1003.9 hPa West 3.2 km/h 4.8 km/h 94% 0 mm 46 W/m2
09:42 2.7 °C 1.8 °C 1004.3 hPa NW 4.8 km/h 4.8 km/h 94% 0 mm 23 W/m2
09:48 2.7 °C 1.8 °C 1004.6 hPa WNW 4.8 km/h 8 km/h 94% 0 mm 19 W/m2
09:54 2.6 °C 1.7 °C 1005 hPa WNW 6.4 km/h 12.9 km/h 94% 0 mm 19 W/m2
10:00 2.6 °C 1.7 °C 1005.3 hPa NW 6.4 km/h 6.4 km/h 94% 0 mm 16 W/m2
10:06 2.4 °C 1.6 °C 1005.6 hPa NNW 6.4 km/h 11.3 km/h 94% 0 mm 21 W/m2
10:12 2.4 °C 1.4 °C 1005.3 hPa West 6.4 km/h 8 km/h 93% 0 mm 19 W/m2
10:18 2.3 °C 1.3 °C 1005.3 hPa West 4.8 km/h 8 km/h 93% 0 mm 37 W/m2
10:24 2.2 °C 1.2 °C 1005 hPa West 4.8 km/h 12.9 km/h 93% 0 mm 37 W/m2
10:30 2.1 °C 1.1 °C 1005.3 hPa WNW 6.4 km/h 6.4 km/h 93% 0 mm 60 W/m2
10:36 2.1 °C 1.1 °C 1005 hPa WNW 6.4 km/h 11.3 km/h 93% 0 mm 102 W/m2
10:42 2.1 °C 1.1 °C 1005 hPa WNW 6.4 km/h 6.4 km/h 93% 0 mm 60 W/m2
10:48 2.1 °C 1.1 °C 1005.3 hPa West 4.8 km/h 6.4 km/h 93% 0 mm 39 W/m2
10:54 2.1 °C 1.1 °C 1005.6 hPa West 4.8 km/h 6.4 km/h 93% 0 mm 32 W/m2
11:00 2.1 °C 1.1 °C 1005.6 hPa WNW 4.8 km/h 4.8 km/h 93% 0 mm 40 W/m2
11:06 2.1 °C 1.1 °C 1005.6 hPa SW 4.8 km/h 4.8 km/h 93% 0 mm 47 W/m2
11:12 2 °C 1 °C 1005.6 hPa SW 4.8 km/h 4.8 km/h 93% 0 mm 39 W/m2
11:18 2.1 °C 1.1 °C 1005.6 hPa WNW 4.8 km/h 4.8 km/h 93% 0 mm 33 W/m2
11:24 2.1 °C 1.1 °C 1006 hPa West 3.2 km/h 4.8 km/h 93% 0 mm 44 W/m2
11:30 2 °C 1 °C 1006.3 hPa WNW 4.8 km/h 8 km/h 93% 0 mm 28 W/m2
11:36 1.9 °C 0.9 °C 1006.3 hPa West 6.4 km/h 8 km/h 93% 0 mm 33 W/m2
11:42 1.8 °C 0.8 °C 1006 hPa NW 6.4 km/h 6.4 km/h 93% 0 mm 51 W/m2
11:48 1.8 °C 0.8 °C 1006.3 hPa NW 4.8 km/h 8 km/h 93% 0 mm 35 W/m2
11:54 1.8 °C 0.6 °C 1006.3 hPa WNW 6.4 km/h 9.7 km/h 92% 0 mm 42 W/m2
12:00 1.7 °C 0.5 °C 1006.7 hPa WNW 6.4 km/h 6.4 km/h 92% 0 mm 33 W/m2
12:06 1.7 °C 0.5 °C 1006.7 hPa WSW 6.4 km/h 9.7 km/h 92% 0 mm 26 W/m2
12:12 1.6 °C 0.4 °C 1006.7 hPa West 8 km/h 8 km/h 92% 0 mm 32 W/m2
12:18 1.6 °C 0.4 °C 1006.7 hPa WNW 6.4 km/h 8 km/h 92% 0 mm 28 W/m2
12:24 1.6 °C 0.4 °C 1006.7 hPa WSW 4.8 km/h 9.7 km/h 92% 0 mm 32 W/m2
12:30 1.6 °C 0.4 °C 1007 hPa West 6.4 km/h 11.3 km/h 92% 0 mm 28 W/m2
12:36 1.6 °C 0.4 °C 1007.3 hPa WNW 8 km/h 11.3 km/h 92% 0 mm 28 W/m2
12:42 1.6 °C 0.4 °C 1007.3 hPa West 8 km/h 11.3 km/h 92% 0 mm 39 W/m2
12:48 1.6 °C 0.4 °C 1007.3 hPa West 8 km/h 11.3 km/h 92% 0 mm 37 W/m2
12:54 1.6 °C 0.2 °C 1007.3 hPa West 9.7 km/h 19.3 km/h 91% 0 mm 37 W/m2
13:00 1.6 °C 0.3 °C 1007.3 hPa WNW 11.3 km/h 11.3 km/h 91% 0 mm 44 W/m2
13:06 1.6 °C 0.3 °C 1007.3 hPa NNE 9.7 km/h 20.9 km/h 91% 0 mm 63 W/m2
13:12 1.6 °C 0.2 °C 1007.7 hPa West 9.7 km/h 11.3 km/h 90% 0 mm 67 W/m2
13:18 1.7 °C 0.2 °C 1007.7 hPa NW 9.7 km/h 11.3 km/h 90% 0 mm 83 W/m2
13:24 1.7 °C 0.2 °C 1007.7 hPa NW 8 km/h 9.7 km/h 90% 0 mm 67 W/m2
13:30 1.6 °C 0.2 °C 1007.7 hPa NW 8 km/h 8 km/h 90% 0 mm 139 W/m2
13:36 1.5 °C 0.1 °C 1008 hPa NW 8 km/h 8 km/h 90% 0 mm 98 W/m2
13:42 1.4 °C 0 °C 1008 hPa WNW 8 km/h 8 km/h 90% 0 mm 125 W/m2
13:48 1.6 °C 0.1 °C 1008.4 hPa NW 8 km/h 9.7 km/h 90% 0 mm 200 W/m2
13:54 1.7 °C 0.2 °C 1008.4 hPa WNW 6.4 km/h 12.9 km/h 90% 0 mm 178 W/m2
14:00 1.6 °C 0.1 °C 1008.4 hPa NW 8 km/h 11.3 km/h 90% 0 mm 84 W/m2
14:06 1.4 °C 0 °C 1008.7 hPa NW 8 km/h 14.5 km/h 90% 0 mm 32 W/m2
14:12 1.4 °C -0.2 °C 1008.7 hPa West 8 km/h 11.3 km/h 89% 0 mm 127 W/m2
14:18 1.4 °C -0.2 °C 1009 hPa NNW 9.7 km/h 14.5 km/h 89% 0 mm 95 W/m2
14:24 1.3 °C -0.4 °C 1009 hPa WNW 11.3 km/h 17.7 km/h 88% 0 mm 37 W/m2
14:30 1.2 °C -0.8 °C 1009.4 hPa NW 11.3 km/h 19.3 km/h 87% 0 mm 42 W/m2
14:36 1.1 °C -0.9 °C 1009.4 hPa NW 11.3 km/h 19.3 km/h 87% 0 mm 98 W/m2
14:42 0.9 °C -1.1 °C 1009.7 hPa NW 11.3 km/h 16.1 km/h 86% 0 mm 79 W/m2
14:48 0.8 °C -1.2 °C 1010 hPa WNW 11.3 km/h 16.1 km/h 86% 0 mm 139 W/m2
14:54 0.8 °C -1.4 °C 1010 hPa NW 9.7 km/h 19.3 km/h 85% 0 mm 70 W/m2
15:00 0.6 °C -1.8 °C 1010 hPa NW 11.3 km/h 14.5 km/h 84% 0 mm 95 W/m2
15:06 0.6 °C -1.8 °C 1010.4 hPa WNW 9.7 km/h 14.5 km/h 84% 0 mm 107 W/m2
15:12 0.6 °C -1.8 °C 1010.4 hPa NW 9.7 km/h 12.9 km/h 84% 0 mm 107 W/m2
15:18 0.6 °C -2 °C 1010.7 hPa West 9.7 km/h 17.7 km/h 83% 0 mm 137 W/m2
15:24 0.6 °C -2.1 °C 1010.7 hPa WNW 11.3 km/h 14.5 km/h 82% 0 mm 183 W/m2
15:30 0.8 °C -2.1 °C 1011.1 hPa NW 11.3 km/h 11.3 km/h 81% 0 mm 84 W/m2
15:36 0.6 °C -2.3 °C 1011.1 hPa West 11.3 km/h 11.3 km/h 81% 0 mm 125 W/m2
15:42 0.6 °C -2.4 °C 1011.4 hPa WNW 9.7 km/h 12.9 km/h 80% 0 mm 113 W/m2
15:48 0.3 °C -3.1 °C 1011.7 hPa NNW 11.3 km/h 16.1 km/h 78% 0 mm 81 W/m2
15:54 0.3 °C -3.1 °C 1011.7 hPa NW 11.3 km/h 11.3 km/h 78% 0 mm 251 W/m2
16:00 0.4 °C -3 °C 1011.7 hPa West 9.7 km/h 12.9 km/h 78% 0 mm 294 W/m2
16:06 0.5 °C -3.1 °C 1012.1 hPa WNW 9.7 km/h 14.5 km/h 77% 0 mm 260 W/m2
16:14 0.7 °C -3.3 °C 1012.4 hPa WNW 8 km/h 9.7 km/h 75% 0 mm 237 W/m2
16:20 0.6 °C -3.1 °C 1012.4 hPa WNW 8 km/h 8 km/h 76% 0 mm 47 W/m2
16:26 0.4 °C -3.7 °C 1012.8 hPa WNW 9.7 km/h 14.5 km/h 74% 0 mm 42 W/m2
16:32 0.3 °C -3.8 °C 1012.8 hPa WNW 11.3 km/h 11.3 km/h 74% 0 mm 44 W/m2
16:38 0.3 °C -3.8 °C 1013.1 hPa NW 9.7 km/h 16.1 km/h 74% 0 mm 35 W/m2
16:44 0.1 °C -4 °C 1013.1 hPa West 9.7 km/h 29 km/h 74% 0 mm 32 W/m2
16:50 -0.1 °C -4.3 °C 1013.1 hPa West 11.3 km/h 11.3 km/h 73% 0 mm 28 W/m2
16:56 -0.2 °C -4.2 °C 1013.4 hPa WNW 11.3 km/h 17.7 km/h 74% 0 mm 25 W/m2
17:02 -0.3 °C -4.6 °C 1013.8 hPa WNW 9.7 km/h 11.3 km/h 73% 0 mm 21 W/m2
17:08 -0.3 °C -4.6 °C 1013.8 hPa WNW 9.7 km/h 17.7 km/h 73% 0 mm 19 W/m2
17:14 -0.4 °C -4.7 °C 1014.1 hPa West 11.3 km/h 11.3 km/h 73% 0 mm 16 W/m2
17:20 -0.6 °C -4.8 °C 1014.4 hPa WNW 9.7 km/h 11.3 km/h 73% 0 mm 14 W/m2
17:26 -0.7 °C -5.1 °C 1014.8 hPa NW 9.7 km/h 25.7 km/h 72% 0 mm 11 W/m2
17:32 -0.8 °C -5.2 °C 1014.8 hPa WNW 12.9 km/h 12.9 km/h 72% 0 mm 9 W/m2
17:38 -0.9 °C -5.3 °C 1015.1 hPa West 12.9 km/h 20.9 km/h 72% 0 mm 5 W/m2
17:44 -1 °C -5.4 °C 1015.5 hPa WNW 12.9 km/h 12.9 km/h 72% 0 mm 0 W/m2
17:50 -1.1 °C -5.3 °C 1015.5 hPa WNW 11.3 km/h 11.3 km/h 73% 0 mm 0 W/m2
17:56 -1.2 °C -5.4 °C 1015.5 hPa NW 9.7 km/h 16.1 km/h 73% 0 mm 0 W/m2
18:02 -1.3 °C -5.6 °C 1015.8 hPa WNW 11.3 km/h 14.5 km/h 73% 0 mm 0 W/m2
18:08 -1.4 °C -5.8 °C 1016.1 hPa WNW 11.3 km/h 25.7 km/h 72% 0 mm 0 W/m2
18:14 -1.4 °C -6 °C 1016.5 hPa NW 11.3 km/h 12.9 km/h 71% 0 mm 0 W/m2
18:20 -1.6 °C -6.2 °C 1016.5 hPa WNW 9.7 km/h 9.7 km/h 71% 0 mm 0 W/m2
18:26 -1.7 °C -6.4 °C 1016.8 hPa West 11.3 km/h 16.1 km/h 70% 0 mm 0 W/m2
18:32 -1.8 °C -6.9 °C 1017.2 hPa NW 12.9 km/h 16.1 km/h 68% 0 mm 0 W/m2
18:38 -1.9 °C -7.2 °C 1017.5 hPa WNW 11.3 km/h 16.1 km/h 67% 0 mm 0 W/m2
18:44 -1.9 °C -7.1 °C 1017.5 hPa WNW 11.3 km/h 20.9 km/h 68% 0 mm 0 W/m2
18:50 -2.1 °C -7.2 °C 1017.8 hPa NW 8 km/h 8 km/h 68% 0 mm 0 W/m2
18:56 -2.1 °C -7.6 °C 1018.2 hPa WNW 11.3 km/h 17.7 km/h 66% 0 mm 0 W/m2
19:02 -2.2 °C -7.7 °C 1018.2 hPa WNW 12.9 km/h 14.5 km/h 66% 0 mm 0 W/m2
19:08 -2.2 °C -7.7 °C 1018.5 hPa WNW 9.7 km/h 16.1 km/h 66% 0 mm 0 W/m2
19:14 -2.3 °C -7.6 °C 1018.5 hPa WNW 8 km/h 9.7 km/h 67% 0 mm 0 W/m2
19:20 -2.4 °C -7.5 °C 1018.5 hPa NW 8 km/h 8 km/h 68% 0 mm 0 W/m2
19:26 -2.4 °C -7.7 °C 1018.8 hPa NNW 9.7 km/h 11.3 km/h 67% 0 mm 0 W/m2
19:32 -2.4 °C -7.9 °C 1019.2 hPa WNW 9.7 km/h 12.9 km/h 66% 0 mm 0 W/m2
19:38 -2.4 °C -8.1 °C 1019.2 hPa NW 8 km/h 12.9 km/h 65% 0 mm 0 W/m2
19:44 -2.5 °C -8.4 °C 1019.2 hPa NW 11.3 km/h 11.3 km/h 64% 0 mm 0 W/m2
19:50 -2.5 °C -8.2 °C 1019.5 hPa NW 9.7 km/h 9.7 km/h 65% 0 mm 0 W/m2
19:56 -2.6 °C -8.4 °C 1019.5 hPa WNW 9.7 km/h 12.9 km/h 64% 0 mm 0 W/m2
20:02 -2.6 °C -8.3 °C 1019.5 hPa NW 8 km/h 11.3 km/h 65% 0 mm 0 W/m2
20:08 -2.6 °C -8.5 °C 1019.9 hPa NW 9.7 km/h 17.7 km/h 64% 0 mm 0 W/m2
20:14 -2.7 °C -8.6 °C 1020.2 hPa WNW 9.7 km/h 11.3 km/h 64% 0 mm 0 W/m2
20:20 -2.7 °C -8.8 °C 1020.2 hPa NNW 9.7 km/h 12.9 km/h 63% 0 mm 0 W/m2
20:26 -2.8 °C -8.8 °C 1020.5 hPa WNW 11.3 km/h 12.9 km/h 63% 0 mm 0 W/m2
20:32 -2.8 °C -8.7 °C 1020.5 hPa WNW 9.7 km/h 9.7 km/h 64% 0 mm 0 W/m2
20:38 -2.9 °C -8.8 °C 1020.9 hPa WNW 8 km/h 12.9 km/h 64% 0 mm 0 W/m2
20:44 -3 °C -8.8 °C 1020.9 hPa WNW 9.7 km/h 11.3 km/h 64% 0 mm 0 W/m2
20:50 -3.1 °C -8.8 °C 1020.9 hPa NW 8 km/h 11.3 km/h 65% 0 mm 0 W/m2
20:56 -3.2 °C -8.8 °C 1020.9 hPa West 8 km/h 14.5 km/h 65% 0 mm 0 W/m2
21:02 -3.2 °C -8.8 °C 1021.2 hPa WNW 9.7 km/h 9.7 km/h 65% 0 mm 0 W/m2
21:08 -3.2 °C -8.9 °C 1021.2 hPa NW 9.7 km/h 16.1 km/h 65% 0 mm 0 W/m2
21:14 -3.3 °C -9 °C 1021.2 hPa West 9.7 km/h 9.7 km/h 65% 0 mm 0 W/m2
21:20 -3.4 °C -8.8 °C 1021.6 hPa NW 8 km/h 8 km/h 66% 0 mm 0 W/m2
21:26 -3.4 °C -8.9 °C 1021.6 hPa West 6.4 km/h 20.9 km/h 66% 0 mm 0 W/m2
21:32 -3.4 °C -8.9 °C 1021.6 hPa WNW 8 km/h 9.7 km/h 66% 0 mm 0 W/m2
21:38 -3.6 °C -9 °C 1021.9 hPa WNW 6.4 km/h 9.7 km/h 66% 0 mm 0 W/m2
21:44 -3.6 °C -9 °C 1021.9 hPa WNW 6.4 km/h 16.1 km/h 66% 0 mm 0 W/m2
21:50 -3.6 °C -9.1 °C 1021.9 hPa NW 8 km/h 8 km/h 66% 0 mm 0 W/m2
21:56 -3.7 °C -9.1 °C 1021.9 hPa WNW 6.4 km/h 8 km/h 66% 0 mm 0 W/m2
22:02 -3.7 °C -8.9 °C 1022.2 hPa NW 6.4 km/h 8 km/h 67% 0 mm 0 W/m2
22:08 -3.8 °C -9 °C 1022.2 hPa WNW 4.8 km/h 8 km/h 67% 0 mm 0 W/m2
22:14 -3.8 °C -9.1 °C 1022.2 hPa WNW 4.8 km/h 8 km/h 67% 0 mm 0 W/m2
22:20 -3.9 °C -8.9 °C 1022.2 hPa WNW 4.8 km/h 4.8 km/h 68% 0 mm 0 W/m2
22:26 -3.9 °C -8.9 °C 1022.6 hPa WNW 3.2 km/h 11.3 km/h 68% 0 mm 0 W/m2
22:32 -3.9 °C -8.9 °C 1022.6 hPa NW 4.8 km/h 6.4 km/h 68% 0 mm 0 W/m2
22:38 -3.9 °C -9 °C 1022.9 hPa WNW 4.8 km/h 8 km/h 68% 0 mm 0 W/m2
22:44 -3.9 °C -9 °C 1022.9 hPa NW 4.8 km/h 4.8 km/h 68% 0 mm 0 W/m2
22:50 -4 °C -9.1 °C 1022.9 hPa WNW 4.8 km/h 6.4 km/h 68% 0 mm 0 W/m2
22:56 -4.1 °C -9.1 °C 1022.9 hPa WNW 4.8 km/h 8 km/h 68% 0 mm 0 W/m2
23:02 -4.1 °C -9.2 °C 1022.9 hPa NW 4.8 km/h 8 km/h 68% 0 mm 0 W/m2
23:08 -4.2 °C -9 °C 1023.2 hPa NW 3.2 km/h 8 km/h 69% 0 mm 0 W/m2
23:14 -4.2 °C -9.1 °C 1023.2 hPa NW 1.6 km/h 4.8 km/h 69% 0 mm 0 W/m2
23:20 -4.3 °C -9.2 °C 1023.2 hPa NW 3.2 km/h 6.4 km/h 69% 0 mm 0 W/m2
23:26 -4.3 °C -9.3 °C 1023.2 hPa NW 4.8 km/h 9.7 km/h 68% 0 mm 0 W/m2
23:32 -4.3 °C -9.3 °C 1023.2 hPa WNW 4.8 km/h 4.8 km/h 68% 0 mm 0 W/m2
23:38 -4.4 °C -9.4 °C 1023.6 hPa WNW 3.2 km/h 4.8 km/h 68% 0 mm 0 W/m2
23:44 -4.4 °C -9.4 °C 1023.6 hPa NW 3.2 km/h 4.8 km/h 68% 0 mm 0 W/m2
23:50 -4.4 °C -9.4 °C 1023.6 hPa WNW 3.2 km/h 3.2 km/h 68% 0 mm 0 W/m2
23:56 -4.6 °C -9.4 °C 1023.9 hPa WNW 1.6 km/h 3.2 km/h 69% 0 mm 0 W/m2
Country Meadow, Clay, NY, USA
Compliments of Weather Underground - 2 mb